createdAt,value
2022-07-26T00:01:32.389Z,96968.00
2022-07-26T00:04:00.053Z,96972.00
2022-07-26T00:06:27.951Z,96973.00
2022-07-26T00:08:55.575Z,96968.00
2022-07-26T00:11:23.757Z,96979.00
2022-07-26T00:13:51.074Z,96977.00
2022-07-26T00:16:18.520Z,96971.00
2022-07-26T00:18:47.468Z,96966.00
2022-07-26T00:21:14.700Z,96970.00
2022-07-26T00:23:42.191Z,96968.00
2022-07-26T00:26:09.399Z,96972.00
2022-07-26T00:28:36.745Z,96971.00
2022-07-26T00:31:04.616Z,96964.00
2022-07-26T00:33:31.851Z,96966.00
2022-07-26T00:35:59.053Z,96969.00
2022-07-26T00:38:26.326Z,96966.00
2022-07-26T00:40:53.545Z,96978.00
2022-07-26T00:43:20.829Z,96972.00
2022-07-26T00:45:48.188Z,96977.00
2022-07-26T00:48:15.643Z,96979.00
2022-07-26T00:50:42.979Z,96980.00
2022-07-26T00:53:10.376Z,96980.00
2022-07-26T00:55:37.608Z,96982.00
2022-07-26T00:58:06.376Z,96988.00
2022-07-26T01:00:33.740Z,96993.00
2022-07-26T01:03:00.970Z,96990.00
2022-07-26T01:05:28.620Z,96999.00
2022-07-26T01:07:55.941Z,97003.00
2022-07-26T01:10:23.201Z,97002.00
2022-07-26T01:12:50.757Z,97003.00
2022-07-26T01:15:18.497Z,96992.00
2022-07-26T01:17:48.183Z,96996.00
2022-07-26T01:20:33.678Z,96992.00
2022-07-26T01:23:18.948Z,96996.00
2022-07-26T01:25:46.281Z,96992.00
2022-07-26T01:28:19.753Z,96993.00
2022-07-26T01:31:12.207Z,96986.00
2022-07-26T01:34:04.106Z,96998.00
2022-07-26T01:36:49.571Z,96997.00
2022-07-26T01:39:19.476Z,96997.00
2022-07-26T01:41:46.665Z,97000.00
2022-07-26T01:44:34.680Z,97003.00
2022-07-26T01:50:20.562Z,97007.00
2022-07-26T01:52:47.799Z,97013.00
2022-07-26T01:55:15.045Z,97009.00
2022-07-26T01:57:44.387Z,97007.00
2022-07-26T02:00:12.121Z,97000.00
2022-07-26T02:02:39.498Z,96993.00
2022-07-26T02:05:08.049Z,96991.00
2022-07-26T02:07:43.038Z,96993.00
2022-07-26T02:13:18.750Z,96997.00
2022-07-26T02:16:25.397Z,97002.00
2022-07-26T02:19:07.505Z,97006.00
2022-07-26T02:21:36.460Z,97006.00
2022-07-26T02:24:14.378Z,97009.00
2022-07-26T02:26:52.433Z,97000.00
2022-07-26T02:29:34.965Z,96999.00
2022-07-26T02:32:03.643Z,97001.00
2022-07-26T02:34:44.712Z,97000.00
2022-07-26T02:37:29.385Z,96998.00
2022-07-26T02:40:19.488Z,96990.00
2022-07-26T02:42:51.336Z,96986.00
2022-07-26T02:45:18.575Z,96982.00
2022-07-26T02:47:47.653Z,96980.00
2022-07-26T02:50:18.238Z,96984.00
2022-07-26T02:52:47.975Z,96986.00
2022-07-26T02:55:16.767Z,96988.00
2022-07-26T02:57:46.513Z,96981.00
2022-07-26T03:00:20.439Z,96992.00
2022-07-26T03:02:49.296Z,96985.00
2022-07-26T03:05:16.672Z,96999.00
2022-07-26T03:07:43.893Z,96992.00
2022-07-26T03:10:11.319Z,96989.00
2022-07-26T03:12:38.540Z,96978.00
2022-07-26T03:15:06.700Z,96980.00
2022-07-26T03:17:33.925Z,96983.00
2022-07-26T03:20:02.387Z,96973.00
2022-07-26T03:22:29.613Z,96986.00
2022-07-26T03:24:56.891Z,96979.00
2022-07-26T03:27:24.159Z,96974.00
2022-07-26T03:29:51.335Z,96977.00
2022-07-26T03:32:18.528Z,96978.00
2022-07-26T03:34:45.719Z,96988.00
2022-07-26T03:37:12.966Z,96987.00
2022-07-26T03:39:40.601Z,96983.00
2022-07-26T03:42:07.932Z,96993.00
2022-07-26T03:44:35.219Z,96993.00
2022-07-26T03:47:02.439Z,96992.00
2022-07-26T03:49:29.995Z,96993.00
2022-07-26T03:51:57.317Z,96996.00
2022-07-26T03:54:24.684Z,97003.00
2022-07-26T03:56:51.959Z,96999.00
2022-07-26T03:59:19.222Z,96998.00
2022-07-26T04:01:47.347Z,96997.00
2022-07-26T04:04:18.025Z,97009.00
2022-07-26T04:06:47.356Z,97012.00
2022-07-26T04:09:15.405Z,97005.00
2022-07-26T04:11:43.263Z,97014.00
2022-07-26T04:14:11.445Z,97004.00
2022-07-26T04:16:43.464Z,97011.00
2022-07-26T04:19:11.123Z,97010.00
2022-07-26T04:21:38.356Z,97001.00
2022-07-26T04:24:05.897Z,97013.00
2022-07-26T04:26:33.292Z,97011.00
2022-07-26T04:29:00.583Z,97007.00
2022-07-26T04:31:27.811Z,97007.00
2022-07-26T04:34:02.109Z,97004.00
2022-07-26T04:36:29.289Z,97007.00
2022-07-26T04:38:56.472Z,97014.00
2022-07-26T04:41:23.652Z,97016.00
2022-07-26T04:43:50.837Z,97009.00
2022-07-26T04:46:19.329Z,97015.00
2022-07-26T04:48:46.669Z,97015.00
2022-07-26T04:51:13.983Z,97009.00
2022-07-26T04:53:41.171Z,97010.00
2022-07-26T04:56:08.833Z,97008.00
2022-07-26T04:58:36.089Z,97020.00
2022-07-26T05:01:10.035Z,97019.00
2022-07-26T05:03:38.713Z,97024.00
2022-07-26T05:06:06.271Z,97025.00
2022-07-26T05:08:33.496Z,97013.00
2022-07-26T05:11:00.766Z,97022.00
2022-07-26T05:13:29.698Z,97027.00
2022-07-26T05:15:59.421Z,97024.00
2022-07-26T05:18:26.875Z,97029.00
2022-07-26T05:20:54.264Z,97023.00
2022-07-26T05:23:21.528Z,97015.00
2022-07-26T05:25:48.706Z,97018.00
2022-07-26T05:28:15.863Z,97022.00
2022-07-26T05:30:43.091Z,97013.00
2022-07-26T05:33:10.295Z,97023.00
2022-07-26T05:35:41.578Z,97017.00
2022-07-26T05:38:08.808Z,97021.00
2022-07-26T05:40:36.031Z,97028.00
2022-07-26T05:43:04.648Z,97018.00
2022-07-26T05:45:31.997Z,97023.00
2022-07-26T05:47:59.200Z,97018.00
2022-07-26T05:50:26.486Z,97017.00
2022-07-26T05:52:54.094Z,97024.00
2022-07-26T05:55:21.460Z,97026.00
2022-07-26T05:57:49.521Z,97025.00
2022-07-26T06:00:17.382Z,97031.00
2022-07-26T06:02:44.641Z,97039.00
2022-07-26T06:05:11.875Z,97042.00
2022-07-26T06:07:39.105Z,97040.00
2022-07-26T06:10:06.722Z,97048.00
2022-07-26T06:12:33.933Z,97049.00
2022-07-26T06:15:01.145Z,97048.00
2022-07-26T06:17:31.152Z,97047.00
2022-07-26T06:19:59.094Z,97043.00
2022-07-26T06:22:26.487Z,97047.00
2022-07-26T06:24:53.779Z,97049.00
2022-07-26T06:27:20.972Z,97043.00
2022-07-26T06:29:49.138Z,97051.00
2022-07-26T06:32:16.389Z,97047.00
2022-07-26T06:34:43.619Z,97050.00
2022-07-26T06:37:10.829Z,97053.00
2022-07-26T06:39:38.044Z,97059.00
2022-07-26T06:42:05.309Z,97061.00
2022-07-26T06:44:32.515Z,97059.00
2022-07-26T06:46:59.708Z,97058.00
2022-07-26T06:49:26.981Z,97057.00
2022-07-26T06:51:54.195Z,97052.00
2022-07-26T06:54:21.377Z,97049.00
2022-07-26T06:56:48.571Z,97050.00
2022-07-26T06:59:15.791Z,97053.00
2022-07-26T07:01:51.705Z,97042.00
2022-07-26T07:04:30.303Z,97052.00
2022-07-26T07:07:02.307Z,97057.00
2022-07-26T07:09:38.290Z,97057.00
2022-07-26T07:12:23.167Z,97049.00
2022-07-26T07:15:00.698Z,97061.00
2022-07-26T07:17:29.985Z,97056.00
2022-07-26T07:19:57.298Z,97062.00
2022-07-26T07:22:24.544Z,97062.00
2022-07-26T07:24:51.828Z,97061.00
2022-07-26T07:27:28.893Z,97055.00
2022-07-26T07:29:57.375Z,97059.00
2022-07-26T07:32:25.541Z,97051.00
2022-07-26T07:35:12.895Z,97054.00
2022-07-26T07:37:53.016Z,97052.00
2022-07-26T07:40:22.762Z,97056.00
2022-07-26T07:42:59.409Z,97052.00
2022-07-26T07:45:38.436Z,97051.00
2022-07-26T07:48:05.910Z,97058.00
2022-07-26T07:50:33.503Z,97054.00
2022-07-26T07:53:02.111Z,97051.00
2022-07-26T07:55:40.723Z,97048.00
2022-07-26T07:58:11.890Z,97042.00
2022-07-26T08:00:39.126Z,97046.00
2022-07-26T08:03:06.414Z,97053.00
2022-07-26T08:05:33.738Z,97047.00
2022-07-26T08:08:01.015Z,97044.00
2022-07-26T08:10:29.291Z,97045.00
2022-07-26T08:12:56.509Z,97047.00
2022-07-26T08:15:23.820Z,97052.00
2022-07-26T08:17:54.650Z,97056.00
2022-07-26T08:20:23.682Z,97057.00
2022-07-26T08:22:52.932Z,97049.00
2022-07-26T08:25:20.475Z,97062.00
2022-07-26T08:28:02.543Z,97053.00
2022-07-26T08:30:30.748Z,97049.00
2022-07-26T08:32:57.973Z,97046.00
2022-07-26T08:35:25.183Z,97046.00
2022-07-26T08:37:52.393Z,97045.00
2022-07-26T08:40:19.633Z,97058.00
2022-07-26T08:42:54.639Z,97051.00
2022-07-26T08:45:30.848Z,97044.00
2022-07-26T08:50:46.421Z,97052.00
2022-07-26T08:53:13.769Z,97058.00
2022-07-26T08:58:28.197Z,97068.00
2022-07-26T09:01:12.765Z,97070.00
2022-07-26T09:03:40.677Z,97072.00
2022-07-26T09:06:26.290Z,97069.00
2022-07-26T09:09:11.322Z,97069.00
2022-07-26T09:11:38.793Z,97065.00
2022-07-26T09:14:07.164Z,97064.00
2022-07-26T09:16:39.206Z,97068.00
2022-07-26T09:19:16.838Z,97067.00
2022-07-26T09:21:44.274Z,97076.00
2022-07-26T09:24:11.816Z,97079.00
2022-07-26T09:26:39.392Z,97073.00
2022-07-26T09:29:12.043Z,97074.00
2022-07-26T09:31:40.316Z,97084.00
2022-07-26T09:34:08.398Z,97087.00
2022-07-26T09:36:51.610Z,97089.00
2022-07-26T09:39:27.757Z,97078.00
2022-07-26T09:42:27.558Z,97076.00
2022-07-26T09:44:56.911Z,97079.00
2022-07-26T09:47:45.209Z,97081.00
2022-07-26T09:50:45.540Z,97081.00
2022-07-26T09:53:16.685Z,97074.00
2022-07-26T09:56:10.388Z,97076.00
2022-07-26T09:59:04.720Z,97090.00
2022-07-26T10:01:32.174Z,97087.00
2022-07-26T10:04:00.325Z,97088.00
2022-07-26T10:06:30.510Z,97089.00
2022-07-26T10:08:58.366Z,97089.00
2022-07-26T10:11:39.743Z,97094.00
2022-07-26T10:14:42.606Z,97094.00
2022-07-26T10:17:47.207Z,97089.00
2022-07-26T10:23:53.411Z,97094.00
2022-07-26T10:26:49.835Z,97092.00
2022-07-26T10:29:17.084Z,97095.00
2022-07-26T10:32:00.610Z,97091.00
2022-07-26T10:34:39.554Z,97098.00
2022-07-26T10:37:09.227Z,97090.00
2022-07-26T10:39:37.043Z,97099.00
2022-07-26T10:42:09.574Z,97096.00
2022-07-26T10:44:39.435Z,97092.00
2022-07-26T10:47:11.372Z,97091.00
2022-07-26T10:49:39.418Z,97093.00
2022-07-26T10:52:12.499Z,97090.00
2022-07-26T10:55:00.805Z,97088.00
2022-07-26T10:57:30.597Z,97088.00
2022-07-26T10:59:58.785Z,97087.00
2022-07-26T11:02:28.964Z,97074.00
2022-07-26T11:05:14.228Z,97082.00
2022-07-26T11:08:01.504Z,97076.00
2022-07-26T11:10:34.125Z,97079.00
2022-07-26T11:13:17.401Z,97074.00
2022-07-26T11:15:59.376Z,97077.00
2022-07-26T11:18:30.724Z,97071.00
2022-07-26T11:21:07.906Z,97071.00
2022-07-26T11:23:36.642Z,97066.00
2022-07-26T11:26:19.660Z,97069.00
2022-07-26T11:28:53.441Z,97063.00
2022-07-26T11:31:50.737Z,97058.00
2022-07-26T11:34:22.380Z,97055.00
2022-07-26T11:36:51.176Z,97058.00
2022-07-26T11:39:22.582Z,97051.00
2022-07-26T11:41:50.520Z,97056.00
2022-07-26T11:44:19.617Z,97042.00
2022-07-26T11:46:47.873Z,97044.00
2022-07-26T11:49:20.482Z,97043.00
2022-07-26T11:51:56.234Z,97045.00
2022-07-26T11:54:25.201Z,97037.00
2022-07-26T11:56:54.294Z,97038.00
2022-07-26T11:59:23.273Z,97044.00
2022-07-26T12:01:51.199Z,97040.00
2022-07-26T12:04:29.547Z,97044.00
2022-07-26T12:06:59.277Z,97043.00
2022-07-26T12:09:47.382Z,97041.00
2022-07-26T12:12:24.142Z,97040.00
2022-07-26T12:15:05.750Z,97042.00
2022-07-26T12:17:35.786Z,97049.00
2022-07-26T12:20:17.860Z,97041.00
2022-07-26T12:22:57.597Z,97032.00
2022-07-26T12:25:26.593Z,97032.00
2022-07-26T12:27:53.927Z,97025.00
2022-07-26T12:30:21.593Z,97027.00
2022-07-26T12:32:51.900Z,97029.00
2022-07-26T12:35:32.213Z,97023.00
2022-07-26T12:37:59.910Z,97027.00
2022-07-26T12:40:28.842Z,97024.00
2022-07-26T12:43:02.809Z,97011.00
2022-07-26T12:45:34.975Z,97004.00
2022-07-26T12:48:06.841Z,97010.00
2022-07-26T12:50:34.060Z,97011.00
2022-07-26T12:53:03.208Z,97016.00
2022-07-26T12:55:30.724Z,97016.00
2022-07-26T12:57:58.374Z,97019.00
2022-07-26T13:00:25.885Z,97018.00
2022-07-26T13:02:56.941Z,96993.00
2022-07-26T13:05:24.421Z,96993.00
2022-07-26T13:07:52.448Z,97007.00
2022-07-26T13:10:33.023Z,96997.00
2022-07-26T13:13:01.111Z,96997.00
2022-07-26T13:15:35.069Z,96983.00
2022-07-26T13:18:07.020Z,96993.00
2022-07-26T13:20:34.735Z,96993.00
2022-07-26T13:23:03.073Z,97000.00
2022-07-26T13:25:33.496Z,96977.00
2022-07-26T13:28:07.802Z,96973.00
2022-07-26T13:30:38.048Z,96976.00
2022-07-26T13:33:05.487Z,96977.00
2022-07-26T13:35:35.190Z,96966.00
2022-07-26T13:38:08.256Z,96976.00
2022-07-26T13:40:48.254Z,96971.00
2022-07-26T13:43:28.717Z,96963.00
2022-07-26T13:45:55.944Z,96968.00
2022-07-26T13:48:23.187Z,96979.00
2022-07-26T13:50:50.438Z,96975.00
2022-07-26T13:53:20.885Z,96978.00
2022-07-26T13:56:37.959Z,96974.00
2022-07-26T13:59:36.496Z,96972.00
2022-07-26T14:02:04.938Z,96977.00
2022-07-26T14:04:32.459Z,96975.00
2022-07-26T14:06:59.719Z,96974.00
2022-07-26T14:09:26.909Z,96985.00
2022-07-26T14:11:54.244Z,96974.00
2022-07-26T14:14:21.455Z,96976.00
2022-07-26T14:16:49.500Z,96980.00
2022-07-26T14:19:17.292Z,96985.00
2022-07-26T14:21:47.561Z,96984.00
2022-07-26T14:24:28.098Z,96990.00
2022-07-26T14:26:59.180Z,96988.00
2022-07-26T14:29:27.638Z,96982.00
2022-07-26T14:31:55.093Z,96987.00
2022-07-26T14:34:22.462Z,96975.00
2022-07-26T14:36:49.799Z,96981.00
2022-07-26T14:39:16.983Z,96982.00
2022-07-26T14:41:44.319Z,96983.00
2022-07-26T14:44:11.952Z,96976.00
2022-07-26T14:46:40.022Z,96981.00
2022-07-26T14:49:07.352Z,96974.00
2022-07-26T14:51:35.984Z,96979.00
2022-07-26T14:54:03.415Z,96973.00
2022-07-26T14:56:30.844Z,96980.00
2022-07-26T14:58:58.156Z,96976.00
2022-07-26T15:01:25.433Z,96981.00
2022-07-26T15:03:52.691Z,96979.00
2022-07-26T15:06:20.000Z,96977.00
2022-07-26T15:08:47.241Z,96972.00
2022-07-26T15:11:15.500Z,96971.00
2022-07-26T15:13:43.050Z,96962.00
2022-07-26T15:16:10.414Z,96966.00
2022-07-26T15:18:37.811Z,96962.00
2022-07-26T15:21:06.034Z,96961.00
2022-07-26T15:23:33.254Z,96952.00
2022-07-26T15:26:00.448Z,96948.00
2022-07-26T15:28:27.688Z,96947.00
2022-07-26T15:30:54.937Z,96952.00
2022-07-26T15:33:22.673Z,96939.00
2022-07-26T15:35:50.668Z,96943.00
2022-07-26T15:38:17.886Z,96946.00
2022-07-26T15:40:45.169Z,96943.00
2022-07-26T15:43:12.448Z,96947.00
2022-07-26T15:45:41.260Z,96956.00
2022-07-26T15:48:16.122Z,96944.00
2022-07-26T15:50:50.011Z,96946.00
2022-07-26T15:53:17.256Z,96945.00
2022-07-26T15:55:44.518Z,96948.00
2022-07-26T15:58:13.126Z,96960.00
2022-07-26T16:00:40.366Z,96954.00
2022-07-26T16:03:07.655Z,96948.00
2022-07-26T16:05:34.904Z,96947.00
2022-07-26T16:08:02.178Z,96950.00
2022-07-26T16:10:29.403Z,96949.00
2022-07-26T16:12:56.657Z,96948.00
2022-07-26T16:15:23.846Z,96946.00
2022-07-26T16:17:51.072Z,96945.00
2022-07-26T16:20:19.434Z,96938.00
2022-07-26T16:22:47.832Z,96938.00
2022-07-26T16:25:16.044Z,96932.00
2022-07-26T16:27:43.971Z,96935.00
2022-07-26T16:30:15.359Z,96944.00
2022-07-26T16:32:43.129Z,96939.00
2022-07-26T16:35:10.870Z,96934.00
2022-07-26T16:37:38.353Z,96931.00
2022-07-26T16:40:09.832Z,96938.00
2022-07-26T16:42:37.194Z,96931.00
2022-07-26T16:45:05.035Z,96920.00
2022-07-26T16:47:32.300Z,96923.00
2022-07-26T16:49:59.736Z,96926.00
2022-07-26T16:52:27.313Z,96928.00
2022-07-26T16:54:54.746Z,96929.00
2022-07-26T16:57:22.457Z,96920.00
2022-07-26T16:59:49.763Z,96921.00
2022-07-26T17:02:17.142Z,96918.00
2022-07-26T17:04:44.404Z,96921.00
2022-07-26T17:07:26.809Z,96915.00
2022-07-26T17:09:54.991Z,96915.00
2022-07-26T17:12:23.133Z,96915.00
2022-07-26T17:14:50.643Z,96916.00
2022-07-26T17:17:17.849Z,96921.00
2022-07-26T17:19:45.083Z,96923.00
2022-07-26T17:22:12.378Z,96918.00
2022-07-26T17:24:39.648Z,96923.00
2022-07-26T17:27:06.959Z,96925.00
2022-07-26T17:29:34.163Z,96920.00
2022-07-26T17:32:01.612Z,96918.00
2022-07-26T17:34:28.819Z,96912.00
2022-07-26T17:37:00.103Z,96920.00
2022-07-26T17:39:51.587Z,96915.00
2022-07-26T17:42:23.282Z,96920.00
2022-07-26T17:44:51.514Z,96915.00
2022-07-26T17:47:29.724Z,96914.00
2022-07-26T17:50:33.992Z,96910.00
2022-07-26T17:52:56.567Z,96912.00
2022-07-26T17:55:24.456Z,96914.00
2022-07-26T17:57:52.737Z,96920.00
2022-07-26T18:00:22.246Z,96915.00
2022-07-26T18:02:50.301Z,96907.00
2022-07-26T18:05:25.139Z,96917.00
2022-07-26T18:07:55.453Z,96908.00
2022-07-26T18:10:27.855Z,96910.00
2022-07-26T18:12:59.383Z,96923.00
2022-07-26T18:15:27.031Z,96918.00
2022-07-26T18:17:54.913Z,96913.00
2022-07-26T18:20:26.058Z,96917.00
2022-07-26T18:22:54.918Z,96922.00
2022-07-26T18:25:22.829Z,96922.00
2022-07-26T18:27:50.763Z,96916.00
2022-07-26T18:30:18.692Z,96911.00
2022-07-26T18:32:47.025Z,96924.00
2022-07-26T18:35:14.878Z,96912.00
2022-07-26T18:37:46.857Z,96918.00
2022-07-26T18:40:14.502Z,96919.00
2022-07-26T18:42:44.868Z,96922.00
2022-07-26T18:45:15.676Z,96926.00
2022-07-26T18:47:43.634Z,96927.00
2022-07-26T18:50:12.612Z,96924.00
2022-07-26T18:52:45.494Z,96924.00
2022-07-26T18:55:29.338Z,96919.00
2022-07-26T18:58:04.629Z,96924.00
2022-07-26T19:00:36.821Z,96933.00
2022-07-26T19:03:06.152Z,96929.00
2022-07-26T19:05:38.048Z,96929.00
2022-07-26T19:08:08.533Z,96932.00
2022-07-26T19:10:38.223Z,96931.00
2022-07-26T19:13:16.249Z,96934.00
2022-07-26T19:15:47.168Z,96941.00
2022-07-26T19:18:18.356Z,96949.00
2022-07-26T19:20:49.112Z,96959.00
2022-07-26T19:23:19.702Z,96954.00
2022-07-26T19:25:50.249Z,96959.00
2022-07-26T19:28:18.210Z,96953.00
2022-07-26T19:30:49.025Z,96964.00
2022-07-26T19:33:17.232Z,96970.00
2022-07-26T19:35:46.993Z,96973.00
2022-07-26T19:38:21.961Z,96976.00
2022-07-26T19:40:53.226Z,96972.00
2022-07-26T19:43:31.849Z,96971.00
2022-07-26T19:46:02.202Z,96985.00
2022-07-26T19:48:44.543Z,96977.00
2022-07-26T19:51:18.995Z,96983.00
2022-07-26T19:53:50.035Z,96992.00
2022-07-26T19:56:17.387Z,97002.00
2022-07-26T19:58:46.214Z,97001.00
2022-07-26T20:01:13.849Z,97007.00
2022-07-26T20:03:41.190Z,97004.00
2022-07-26T20:06:08.833Z,97007.00
2022-07-26T20:08:36.214Z,97006.00
2022-07-26T20:11:03.512Z,97002.00
2022-07-26T20:13:30.826Z,97002.00
2022-07-26T20:15:58.089Z,97008.00
2022-07-26T20:18:27.129Z,97007.00
2022-07-26T20:20:56.199Z,97003.00
2022-07-26T20:23:23.957Z,97007.00
2022-07-26T20:25:51.523Z,97006.00
2022-07-26T20:28:18.884Z,97002.00
2022-07-26T20:30:48.221Z,97011.00
2022-07-26T20:33:16.461Z,97007.00
2022-07-26T20:35:44.005Z,97015.00
2022-07-26T20:38:11.290Z,97017.00
2022-07-26T20:40:38.605Z,97014.00
2022-07-26T20:43:06.721Z,97018.00
2022-07-26T20:45:34.013Z,97012.00
2022-07-26T20:48:01.564Z,97023.00
2022-07-26T20:50:29.022Z,97021.00
2022-07-26T20:52:56.305Z,97013.00
2022-07-26T20:55:24.004Z,97018.00
2022-07-26T20:57:51.276Z,97009.00
2022-07-26T21:00:18.839Z,97008.00
2022-07-26T21:02:46.323Z,97015.00
2022-07-26T21:05:13.930Z,97026.00
2022-07-26T21:07:56.010Z,97024.00
2022-07-26T21:10:27.992Z,97020.00
2022-07-26T21:12:57.451Z,97018.00
2022-07-26T21:15:24.789Z,97024.00
2022-07-26T21:17:53.061Z,97024.00
2022-07-26T21:20:20.507Z,97023.00
2022-07-26T21:22:47.862Z,97022.00
2022-07-26T21:25:15.181Z,97023.00
2022-07-26T21:27:42.463Z,97022.00
2022-07-26T21:30:10.126Z,97028.00
2022-07-26T21:32:37.337Z,97027.00
2022-07-26T21:35:05.047Z,97026.00
2022-07-26T21:37:32.327Z,97033.00
2022-07-26T21:39:59.970Z,97020.00
2022-07-26T21:42:28.339Z,97023.00
2022-07-26T21:44:55.525Z,97018.00
2022-07-26T21:47:22.782Z,97023.00
2022-07-26T21:49:50.033Z,97022.00
2022-07-26T21:52:17.263Z,97024.00
2022-07-26T21:54:44.485Z,97029.00
2022-07-26T21:57:11.702Z,97027.00
2022-07-26T21:59:38.927Z,97038.00
2022-07-26T22:02:06.327Z,97036.00
2022-07-26T22:04:33.574Z,97035.00
2022-07-26T22:07:00.864Z,97036.00
2022-07-26T22:09:28.146Z,97037.00
2022-07-26T22:11:55.376Z,97030.00
2022-07-26T22:14:22.656Z,97031.00
2022-07-26T22:16:49.906Z,97032.00
2022-07-26T22:19:17.199Z,97034.00
2022-07-26T22:21:44.424Z,97038.00
2022-07-26T22:24:11.904Z,97034.00
2022-07-26T22:26:41.991Z,97033.00
2022-07-26T22:29:09.911Z,97039.00
2022-07-26T22:31:37.365Z,97039.00
2022-07-26T22:34:04.620Z,97037.00
2022-07-26T22:36:31.805Z,97040.00
2022-07-26T22:38:58.998Z,97035.00
2022-07-26T22:41:26.205Z,97044.00
2022-07-26T22:43:59.220Z,97031.00
2022-07-26T22:46:29.197Z,97035.00
2022-07-26T22:48:56.928Z,97037.00
2022-07-26T22:51:24.216Z,97037.00
2022-07-26T22:53:51.414Z,97039.00
2022-07-26T22:56:19.800Z,97039.00
2022-07-26T22:58:47.652Z,97041.00
2022-07-26T23:01:16.584Z,97037.00
2022-07-26T23:03:44.559Z,97033.00
2022-07-26T23:06:31.403Z,97040.00
2022-07-26T23:08:59.470Z,97038.00
2022-07-26T23:11:26.718Z,97043.00
2022-07-26T23:13:58.798Z,97041.00
2022-07-26T23:16:26.816Z,97036.00
2022-07-26T23:18:54.119Z,97037.00
2022-07-26T23:21:21.312Z,97036.00
2022-07-26T23:23:48.517Z,97031.00
2022-07-26T23:26:15.727Z,97026.00
2022-07-26T23:28:42.964Z,97023.00
2022-07-26T23:31:11.474Z,97027.00
2022-07-26T23:33:51.264Z,97026.00
2022-07-26T23:36:22.647Z,97029.00
2022-07-26T23:38:49.924Z,97017.00
2022-07-26T23:41:17.172Z,97023.00
2022-07-26T23:43:44.371Z,97024.00
2022-07-26T23:46:11.642Z,97017.00
2022-07-26T23:48:38.919Z,97021.00
2022-07-26T23:51:06.163Z,97014.00
2022-07-26T23:53:33.362Z,97022.00
2022-07-26T23:56:00.528Z,97030.00
2022-07-26T23:58:27.852Z,97018.00
